sensor_id;sensor_type;location;lat;lon;timestamp;temperature;humidity
40255;DHT22;25973;52.368;4.940;2023-04-07T00:01:37;10.00;99.90
40255;DHT22;25973;52.368;4.940;2023-04-07T00:04:03;9.90;99.90
40255;DHT22;25973;52.368;4.940;2023-04-07T00:06:28;10.00;99.90
40255;DHT22;25973;52.368;4.940;2023-04-07T00:08:53;9.90;99.90
40255;DHT22;25973;52.368;4.940;2023-04-07T00:11:19;10.00;99.90
40255;DHT22;25973;52.368;4.940;2023-04-07T00:13:45;10.00;99.90
40255;DHT22;25973;52.368;4.940;2023-04-07T00:16:10;10.00;99.90
40255;DHT22;25973;52.368;4.940;2023-04-07T00:18:35;10.00;99.90
40255;DHT22;25973;52.368;4.940;2023-04-07T00:21:01;10.00;99.90
40255;DHT22;25973;52.368;4.940;2023-04-07T00:23:26;10.00;99.90
40255;DHT22;25973;52.368;4.940;2023-04-07T00:25:52;10.10;99.90
40255;DHT22;25973;52.368;4.940;2023-04-07T00:28:17;10.10;99.90
40255;DHT22;25973;52.368;4.940;2023-04-07T00:30:43;10.10;99.90
40255;DHT22;25973;52.368;4.940;2023-04-07T00:33:08;10.00;99.90
40255;DHT22;25973;52.368;4.940;2023-04-07T00:35:33;10.00;99.90
40255;DHT22;25973;52.368;4.940;2023-04-07T00:37:59;10.00;99.90
40255;DHT22;25973;52.368;4.940;2023-04-07T00:40:25;10.00;99.90
40255;DHT22;25973;52.368;4.940;2023-04-07T00:42:51;10.10;99.90
40255;DHT22;25973;52.368;4.940;2023-04-07T00:45:16;10.00;99.90
40255;DHT22;25973;52.368;4.940;2023-04-07T00:47:41;10.00;99.90
40255;DHT22;25973;52.368;4.940;2023-04-07T00:50:07;10.10;99.90
40255;DHT22;25973;52.368;4.940;2023-04-07T00:52:33;10.10;99.90
40255;DHT22;25973;52.368;4.940;2023-04-07T00:54:58;10.10;99.90
40255;DHT22;25973;52.368;4.940;2023-04-07T00:57:24;10.10;99.90
40255;DHT22;25973;52.368;4.940;2023-04-07T00:59:50;10.10;99.90
40255;DHT22;25973;52.368;4.940;2023-04-07T01:04:50;10.10;99.90
40255;DHT22;25973;52.368;4.940;2023-04-07T01:07:28;10.00;99.90
40255;DHT22;25973;52.368;4.940;2023-04-07T01:09:57;10.10;99.90
40255;DHT22;25973;52.368;4.940;2023-04-07T01:12:32;10.10;99.90
40255;DHT22;25973;52.368;4.940;2023-04-07T01:14:59;10.00;99.90
40255;DHT22;25973;52.368;4.940;2023-04-07T01:17:27;10.10;99.90
40255;DHT22;25973;52.368;4.940;2023-04-07T01:19:55;10.00;99.90
40255;DHT22;25973;52.368;4.940;2023-04-07T01:22:28;10.00;99.90
40255;DHT22;25973;52.368;4.940;2023-04-07T01:27:48;10.10;99.90
40255;DHT22;25973;52.368;4.940;2023-04-07T01:30:19;10.10;99.90
40255;DHT22;25973;52.368;4.940;2023-04-07T01:32:49;10.10;99.90
40255;DHT22;25973;52.368;4.940;2023-04-07T01:35:16;10.10;99.90
40255;DHT22;25973;52.368;4.940;2023-04-07T01:37:44;10.10;99.90
40255;DHT22;25973;52.368;4.940;2023-04-07T01:40:13;10.10;99.90
40255;DHT22;25973;52.368;4.940;2023-04-07T01:42:39;10.10;99.90
40255;DHT22;25973;52.368;4.940;2023-04-07T01:45:05;10.10;99.90
40255;DHT22;25973;52.368;4.940;2023-04-07T01:47:31;10.10;99.90
40255;DHT22;25973;52.368;4.940;2023-04-07T01:49:57;10.10;99.90
40255;DHT22;25973;52.368;4.940;2023-04-07T01:52:23;10.10;99.90
40255;DHT22;25973;52.368;4.940;2023-04-07T01:54:49;10.00;99.90
40255;DHT22;25973;52.368;4.940;2023-04-07T01:57:15;10.00;99.90
40255;DHT22;25973;52.368;4.940;2023-04-07T01:59:40;10.10;99.90
40255;DHT22;25973;52.368;4.940;2023-04-07T02:02:06;10.10;99.90
40255;DHT22;25973;52.368;4.940;2023-04-07T02:04:36;10.10;99.90
40255;DHT22;25973;52.368;4.940;2023-04-07T02:07:08;10.10;99.90
40255;DHT22;25973;52.368;4.940;2023-04-07T02:09:35;10.10;99.90
40255;DHT22;25973;52.368;4.940;2023-04-07T02:12:03;10.10;99.90
40255;DHT22;25973;52.368;4.940;2023-04-07T02:14:29;10.10;99.90
40255;DHT22;25973;52.368;4.940;2023-04-07T02:16:55;10.10;99.90
40255;DHT22;25973;52.368;4.940;2023-04-07T02:19:21;10.10;99.90
40255;DHT22;25973;52.368;4.940;2023-04-07T02:21:46;10.20;99.90
40255;DHT22;25973;52.368;4.940;2023-04-07T02:24:12;10.10;99.90
40255;DHT22;25973;52.368;4.940;2023-04-07T02:26:38;10.10;99.90
40255;DHT22;25973;52.368;4.940;2023-04-07T02:29:03;10.10;99.90
40255;DHT22;25973;52.368;4.940;2023-04-07T02:31:29;10.10;99.90
40255;DHT22;25973;52.368;4.940;2023-04-07T02:33:55;10.00;99.90
40255;DHT22;25973;52.368;4.940;2023-04-07T02:36:20;9.90;99.90
40255;DHT22;25973;52.368;4.940;2023-04-07T02:38:46;10.00;99.90
40255;DHT22;25973;52.368;4.940;2023-04-07T02:41:11;10.00;99.90
40255;DHT22;25973;52.368;4.940;2023-04-07T02:43:36;9.90;99.90
40255;DHT22;25973;52.368;4.940;2023-04-07T02:46:02;9.90;99.90
40255;DHT22;25973;52.368;4.940;2023-04-07T02:48:28;9.90;99.90
40255;DHT22;25973;52.368;4.940;2023-04-07T02:50:53;9.90;99.90
40255;DHT22;25973;52.368;4.940;2023-04-07T02:53:18;9.90;99.90
40255;DHT22;25973;52.368;4.940;2023-04-07T02:55:44;9.90;99.90
40255;DHT22;25973;52.368;4.940;2023-04-07T02:58:10;9.90;99.90
40255;DHT22;25973;52.368;4.940;2023-04-07T03:00:35;9.90;99.90
40255;DHT22;25973;52.368;4.940;2023-04-07T03:03:01;9.90;99.90
40255;DHT22;25973;52.368;4.940;2023-04-07T03:05:26;9.90;99.90
40255;DHT22;25973;52.368;4.940;2023-04-07T03:07:52;9.90;99.90
40255;DHT22;25973;52.368;4.940;2023-04-07T03:10:17;9.90;99.90
40255;DHT22;25973;52.368;4.940;2023-04-07T03:12:43;9.90;99.90
40255;DHT22;25973;52.368;4.940;2023-04-07T03:15:08;9.80;99.90
40255;DHT22;25973;52.368;4.940;2023-04-07T03:17:34;9.80;99.90
40255;DHT22;25973;52.368;4.940;2023-04-07T03:20:00;9.80;99.90
40255;DHT22;25973;52.368;4.940;2023-04-07T03:22:25;9.70;99.90
40255;DHT22;25973;52.368;4.940;2023-04-07T03:24:51;9.70;99.90
40255;DHT22;25973;52.368;4.940;2023-04-07T03:27:16;9.70;99.90
40255;DHT22;25973;52.368;4.940;2023-04-07T03:29:42;9.70;99.90
40255;DHT22;25973;52.368;4.940;2023-04-07T03:32:08;9.60;99.90
40255;DHT22;25973;52.368;4.940;2023-04-07T03:34:33;9.70;99.90
40255;DHT22;25973;52.368;4.940;2023-04-07T03:36:59;9.70;99.90
40255;DHT22;25973;52.368;4.940;2023-04-07T03:39:24;9.70;99.90
40255;DHT22;25973;52.368;4.940;2023-04-07T03:41:50;9.70;99.90
40255;DHT22;25973;52.368;4.940;2023-04-07T03:44:16;9.70;99.90
40255;DHT22;25973;52.368;4.940;2023-04-07T03:46:41;9.70;99.90
40255;DHT22;25973;52.368;4.940;2023-04-07T03:49:07;9.70;99.90
40255;DHT22;25973;52.368;4.940;2023-04-07T03:51:32;9.70;99.90
40255;DHT22;25973;52.368;4.940;2023-04-07T03:53:58;9.80;99.90
40255;DHT22;25973;52.368;4.940;2023-04-07T03:56:24;9.80;99.90
40255;DHT22;25973;52.368;4.940;2023-04-07T03:58:49;9.80;99.90
40255;DHT22;25973;52.368;4.940;2023-04-07T04:01:15;9.80;99.90
40255;DHT22;25973;52.368;4.940;2023-04-07T04:03:45;9.80;99.90
40255;DHT22;25973;52.368;4.940;2023-04-07T04:06:11;9.80;99.90
40255;DHT22;25973;52.368;4.940;2023-04-07T04:08:36;9.80;99.90
40255;DHT22;25973;52.368;4.940;2023-04-07T04:11:01;9.80;99.90
40255;DHT22;25973;52.368;4.940;2023-04-07T04:13:27;9.90;99.90
40255;DHT22;25973;52.368;4.940;2023-04-07T04:15:52;9.80;99.90
40255;DHT22;25973;52.368;4.940;2023-04-07T04:18:18;9.80;99.90
40255;DHT22;25973;52.368;4.940;2023-04-07T04:20:43;9.80;99.90
40255;DHT22;25973;52.368;4.940;2023-04-07T04:23:09;9.80;99.90
40255;DHT22;25973;52.368;4.940;2023-04-07T04:25:34;9.80;99.90
40255;DHT22;25973;52.368;4.940;2023-04-07T04:28:00;9.80;99.90
40255;DHT22;25973;52.368;4.940;2023-04-07T04:30:25;9.80;99.90
40255;DHT22;25973;52.368;4.940;2023-04-07T04:32:51;9.70;99.90
40255;DHT22;25973;52.368;4.940;2023-04-07T04:35:17;9.70;99.90
40255;DHT22;25973;52.368;4.940;2023-04-07T04:37:43;9.70;99.90
40255;DHT22;25973;52.368;4.940;2023-04-07T04:40:08;9.70;99.90
40255;DHT22;25973;52.368;4.940;2023-04-07T04:42:34;9.80;99.90
40255;DHT22;25973;52.368;4.940;2023-04-07T04:45:00;9.80;99.90
40255;DHT22;25973;52.368;4.940;2023-04-07T04:47:25;9.80;99.90
40255;DHT22;25973;52.368;4.940;2023-04-07T04:49:51;9.80;99.90
40255;DHT22;25973;52.368;4.940;2023-04-07T04:52:16;9.80;99.90
40255;DHT22;25973;52.368;4.940;2023-04-07T04:54:45;9.80;99.90
40255;DHT22;25973;52.368;4.940;2023-04-07T04:57:10;9.80;99.90
40255;DHT22;25973;52.368;4.940;2023-04-07T04:59:36;9.80;99.90
40255;DHT22;25973;52.368;4.940;2023-04-07T05:02:01;9.80;99.90
40255;DHT22;25973;52.368;4.940;2023-04-07T05:04:27;9.80;99.90
40255;DHT22;25973;52.368;4.940;2023-04-07T05:06:52;9.90;99.90
40255;DHT22;25973;52.368;4.940;2023-04-07T05:09:18;9.90;99.90
40255;DHT22;25973;52.368;4.940;2023-04-07T05:11:43;9.90;99.90
40255;DHT22;25973;52.368;4.940;2023-04-07T05:14:08;9.90;99.90
40255;DHT22;25973;52.368;4.940;2023-04-07T05:16:34;9.90;99.90
40255;DHT22;25973;52.368;4.940;2023-04-07T05:19:00;9.90;99.90
40255;DHT22;25973;52.368;4.940;2023-04-07T05:21:25;9.90;99.90
40255;DHT22;25973;52.368;4.940;2023-04-07T05:23:51;9.90;99.90
40255;DHT22;25973;52.368;4.940;2023-04-07T05:26:17;10.00;99.90
40255;DHT22;25973;52.368;4.940;2023-04-07T05:28:42;10.00;99.90
40255;DHT22;25973;52.368;4.940;2023-04-07T05:31:08;10.00;99.90
40255;DHT22;25973;52.368;4.940;2023-04-07T05:33:33;10.10;99.90
40255;DHT22;25973;52.368;4.940;2023-04-07T05:35:59;10.00;99.90
40255;DHT22;25973;52.368;4.940;2023-04-07T05:38:25;10.00;99.90
40255;DHT22;25973;52.368;4.940;2023-04-07T05:40:50;10.00;99.90
40255;DHT22;25973;52.368;4.940;2023-04-07T05:43:16;10.00;99.90
40255;DHT22;25973;52.368;4.940;2023-04-07T05:45:41;9.90;99.90
40255;DHT22;25973;52.368;4.940;2023-04-07T05:48:06;10.00;99.90
40255;DHT22;25973;52.368;4.940;2023-04-07T05:50:32;10.00;99.90
40255;DHT22;25973;52.368;4.940;2023-04-07T05:52:57;10.00;99.90
40255;DHT22;25973;52.368;4.940;2023-04-07T05:55:23;10.00;99.90
40255;DHT22;25973;52.368;4.940;2023-04-07T05:57:48;10.00;99.90
40255;DHT22;25973;52.368;4.940;2023-04-07T06:00:14;9.90;99.90
40255;DHT22;25973;52.368;4.940;2023-04-07T06:02:40;9.90;99.90
40255;DHT22;25973;52.368;4.940;2023-04-07T06:05:05;9.90;99.90
40255;DHT22;25973;52.368;4.940;2023-04-07T06:07:31;9.90;99.90
40255;DHT22;25973;52.368;4.940;2023-04-07T06:09:56;9.90;99.90
40255;DHT22;25973;52.368;4.940;2023-04-07T06:12:22;10.00;99.90
40255;DHT22;25973;52.368;4.940;2023-04-07T06:14:54;10.00;99.90
40255;DHT22;25973;52.368;4.940;2023-04-07T06:17:20;10.00;99.90
40255;DHT22;25973;52.368;4.940;2023-04-07T06:19:45;10.00;99.90
40255;DHT22;25973;52.368;4.940;2023-04-07T06:22:11;10.10;99.90
40255;DHT22;25973;52.368;4.940;2023-04-07T06:24:36;10.00;99.90
40255;DHT22;25973;52.368;4.940;2023-04-07T06:27:02;10.00;99.90
40255;DHT22;25973;52.368;4.940;2023-04-07T06:29:28;10.00;99.90
40255;DHT22;25973;52.368;4.940;2023-04-07T06:31:53;10.10;99.90
40255;DHT22;25973;52.368;4.940;2023-04-07T06:34:19;10.10;99.90
40255;DHT22;25973;52.368;4.940;2023-04-07T06:36:45;10.20;99.90
40255;DHT22;25973;52.368;4.940;2023-04-07T06:39:10;10.30;99.90
40255;DHT22;25973;52.368;4.940;2023-04-07T06:41:36;10.30;99.90
40255;DHT22;25973;52.368;4.940;2023-04-07T06:44:03;10.30;99.90
40255;DHT22;25973;52.368;4.940;2023-04-07T06:46:29;10.30;99.90
40255;DHT22;25973;52.368;4.940;2023-04-07T06:48:54;10.30;99.90
40255;DHT22;25973;52.368;4.940;2023-04-07T06:51:20;10.30;99.90
40255;DHT22;25973;52.368;4.940;2023-04-07T06:53:45;10.30;99.90
40255;DHT22;25973;52.368;4.940;2023-04-07T06:56:13;10.30;99.90
40255;DHT22;25973;52.368;4.940;2023-04-07T06:58:38;10.30;99.90
40255;DHT22;25973;52.368;4.940;2023-04-07T07:01:04;10.30;99.90
40255;DHT22;25973;52.368;4.940;2023-04-07T07:03:30;10.30;99.90
40255;DHT22;25973;52.368;4.940;2023-04-07T07:05:56;10.20;99.90
40255;DHT22;25973;52.368;4.940;2023-04-07T07:08:22;10.20;99.90
40255;DHT22;25973;52.368;4.940;2023-04-07T07:10:47;10.20;99.90
40255;DHT22;25973;52.368;4.940;2023-04-07T07:13:13;10.20;99.90
40255;DHT22;25973;52.368;4.940;2023-04-07T07:15:38;10.30;99.90
40255;DHT22;25973;52.368;4.940;2023-04-07T07:18:04;10.30;99.90
40255;DHT22;25973;52.368;4.940;2023-04-07T07:20:29;10.30;99.90
40255;DHT22;25973;52.368;4.940;2023-04-07T07:22:55;10.20;99.90
40255;DHT22;25973;52.368;4.940;2023-04-07T07:25:21;10.20;99.90
40255;DHT22;25973;52.368;4.940;2023-04-07T07:27:46;10.20;99.90
40255;DHT22;25973;52.368;4.940;2023-04-07T07:30:16;10.20;99.90
40255;DHT22;25973;52.368;4.940;2023-04-07T07:32:41;10.30;99.90
40255;DHT22;25973;52.368;4.940;2023-04-07T07:35:07;10.30;99.90
40255;DHT22;25973;52.368;4.940;2023-04-07T07:37:32;10.30;99.90
40255;DHT22;25973;52.368;4.940;2023-04-07T07:39:57;10.30;99.90
40255;DHT22;25973;52.368;4.940;2023-04-07T07:42:23;10.30;99.90
40255;DHT22;25973;52.368;4.940;2023-04-07T07:44:48;10.30;99.90
40255;DHT22;25973;52.368;4.940;2023-04-07T07:47:15;10.30;99.90
40255;DHT22;25973;52.368;4.940;2023-04-07T07:49:40;10.40;99.90
40255;DHT22;25973;52.368;4.940;2023-04-07T07:52:06;10.40;99.90
40255;DHT22;25973;52.368;4.940;2023-04-07T07:54:32;10.40;99.90
40255;DHT22;25973;52.368;4.940;2023-04-07T07:56:57;10.50;99.90
40255;DHT22;25973;52.368;4.940;2023-04-07T07:59:23;10.50;99.90
40255;DHT22;25973;52.368;4.940;2023-04-07T08:01:48;10.60;99.90
40255;DHT22;25973;52.368;4.940;2023-04-07T08:04:13;10.60;99.90
40255;DHT22;25973;52.368;4.940;2023-04-07T08:06:39;10.60;99.90
40255;DHT22;25973;52.368;4.940;2023-04-07T08:09:05;10.60;99.90
40255;DHT22;25973;52.368;4.940;2023-04-07T08:11:30;10.60;99.90
40255;DHT22;25973;52.368;4.940;2023-04-07T08:13:55;10.60;99.90
40255;DHT22;25973;52.368;4.940;2023-04-07T08:16:21;10.60;99.90
40255;DHT22;25973;52.368;4.940;2023-04-07T08:18:47;10.60;99.90
40255;DHT22;25973;52.368;4.940;2023-04-07T08:21:13;10.60;99.90
40255;DHT22;25973;52.368;4.940;2023-04-07T08:23:38;10.70;99.90
40255;DHT22;25973;52.368;4.940;2023-04-07T08:26:04;10.70;99.90
40255;DHT22;25973;52.368;4.940;2023-04-07T08:28:29;10.70;99.90
40255;DHT22;25973;52.368;4.940;2023-04-07T08:30:55;10.80;99.90
40255;DHT22;25973;52.368;4.940;2023-04-07T08:33:20;10.90;99.90
40255;DHT22;25973;52.368;4.940;2023-04-07T08:35:46;11.00;99.90
40255;DHT22;25973;52.368;4.940;2023-04-07T08:38:11;11.10;99.90
40255;DHT22;25973;52.368;4.940;2023-04-07T08:40:37;11.10;99.90
40255;DHT22;25973;52.368;4.940;2023-04-07T08:43:04;11.20;99.90
40255;DHT22;25973;52.368;4.940;2023-04-07T08:45:32;11.20;99.90
40255;DHT22;25973;52.368;4.940;2023-04-07T08:47:58;11.20;99.90
40255;DHT22;25973;52.368;4.940;2023-04-07T08:50:25;11.30;99.90
40255;DHT22;25973;52.368;4.940;2023-04-07T08:52:54;11.30;99.90
40255;DHT22;25973;52.368;4.940;2023-04-07T08:55:21;11.30;99.90
40255;DHT22;25973;52.368;4.940;2023-04-07T08:57:46;11.30;99.90
40255;DHT22;25973;52.368;4.940;2023-04-07T09:00:12;11.20;99.90
40255;DHT22;25973;52.368;4.940;2023-04-07T09:02:39;11.20;99.90
40255;DHT22;25973;52.368;4.940;2023-04-07T09:05:05;11.20;99.90
40255;DHT22;25973;52.368;4.940;2023-04-07T09:07:31;11.10;99.90
40255;DHT22;25973;52.368;4.940;2023-04-07T09:09:57;11.10;99.90
40255;DHT22;25973;52.368;4.940;2023-04-07T09:12:23;11.10;99.90
40255;DHT22;25973;52.368;4.940;2023-04-07T09:14:49;11.10;99.90
40255;DHT22;25973;52.368;4.940;2023-04-07T09:17:14;11.10;99.90
40255;DHT22;25973;52.368;4.940;2023-04-07T09:19:40;11.10;99.90
40255;DHT22;25973;52.368;4.940;2023-04-07T09:22:05;11.10;99.90
40255;DHT22;25973;52.368;4.940;2023-04-07T09:24:31;11.10;99.90
40255;DHT22;25973;52.368;4.940;2023-04-07T09:27:12;11.20;99.90
40255;DHT22;25973;52.368;4.940;2023-04-07T09:29:40;11.30;99.90
40255;DHT22;25973;52.368;4.940;2023-04-07T09:32:06;11.40;99.90
40255;DHT22;25973;52.368;4.940;2023-04-07T09:34:32;11.40;99.90
40255;DHT22;25973;52.368;4.940;2023-04-07T09:36:58;11.50;99.90
40255;DHT22;25973;52.368;4.940;2023-04-07T09:39:24;11.50;99.90
40255;DHT22;25973;52.368;4.940;2023-04-07T09:41:50;11.60;99.90
40255;DHT22;25973;52.368;4.940;2023-04-07T09:44:17;11.50;99.90
40255;DHT22;25973;52.368;4.940;2023-04-07T09:46:55;11.50;99.90
40255;DHT22;25973;52.368;4.940;2023-04-07T09:49:21;11.50;99.90
40255;DHT22;25973;52.368;4.940;2023-04-07T09:51:54;11.50;99.90
40255;DHT22;25973;52.368;4.940;2023-04-07T09:54:30;11.40;99.90
40255;DHT22;25973;52.368;4.940;2023-04-07T09:56:57;11.40;99.90
40255;DHT22;25973;52.368;4.940;2023-04-07T09:59:23;11.40;99.90
40255;DHT22;25973;52.368;4.940;2023-04-07T10:01:50;11.40;99.90
40255;DHT22;25973;52.368;4.940;2023-04-07T10:04:15;11.40;99.90
40255;DHT22;25973;52.368;4.940;2023-04-07T10:06:41;11.50;99.90
40255;DHT22;25973;52.368;4.940;2023-04-07T10:09:08;11.50;99.90
40255;DHT22;25973;52.368;4.940;2023-04-07T10:11:34;11.50;99.90
40255;DHT22;25973;52.368;4.940;2023-04-07T10:14:01;11.60;99.90
40255;DHT22;25973;52.368;4.940;2023-04-07T10:16:27;11.50;99.90
40255;DHT22;25973;52.368;4.940;2023-04-07T10:18:53;11.50;99.90
40255;DHT22;25973;52.368;4.940;2023-04-07T10:21:19;11.50;99.90
40255;DHT22;25973;52.368;4.940;2023-04-07T10:23:47;11.50;99.90
40255;DHT22;25973;52.368;4.940;2023-04-07T10:26:15;11.50;99.90
40255;DHT22;25973;52.368;4.940;2023-04-07T10:28:45;11.50;99.90
40255;DHT22;25973;52.368;4.940;2023-04-07T10:31:13;11.60;99.90
40255;DHT22;25973;52.368;4.940;2023-04-07T10:36:10;11.60;99.90
40255;DHT22;25973;52.368;4.940;2023-04-07T10:38:36;11.70;99.90
40255;DHT22;25973;52.368;4.940;2023-04-07T10:43:46;11.70;99.90
40255;DHT22;25973;52.368;4.940;2023-04-07T10:46:12;11.60;99.90
40255;DHT22;25973;52.368;4.940;2023-04-07T10:48:37;11.60;99.90
40255;DHT22;25973;52.368;4.940;2023-04-07T10:53:31;11.60;99.90
40255;DHT22;25973;52.368;4.940;2023-04-07T10:55:58;11.60;99.90
40255;DHT22;25973;52.368;4.940;2023-04-07T10:58:29;11.70;99.90
40255;DHT22;25973;52.368;4.940;2023-04-07T11:03:21;11.80;99.90
40255;DHT22;25973;52.368;4.940;2023-04-07T11:05:46;11.80;99.90
40255;DHT22;25973;52.368;4.940;2023-04-07T11:08:12;11.90;99.90
40255;DHT22;25973;52.368;4.940;2023-04-07T11:10:37;11.90;99.90
40255;DHT22;25973;52.368;4.940;2023-04-07T11:13:06;11.90;99.90
40255;DHT22;25973;52.368;4.940;2023-04-07T11:15:33;12.00;99.90
40255;DHT22;25973;52.368;4.940;2023-04-07T11:18:18;12.00;99.90
40255;DHT22;25973;52.368;4.940;2023-04-07T11:20:44;12.00;99.90
40255;DHT22;25973;52.368;4.940;2023-04-07T11:23:11;12.00;99.90
40255;DHT22;25973;52.368;4.940;2023-04-07T11:25:37;11.90;99.90
40255;DHT22;25973;52.368;4.940;2023-04-07T11:28:02;11.80;99.90
40255;DHT22;25973;52.368;4.940;2023-04-07T11:30:28;11.80;99.90
40255;DHT22;25973;52.368;4.940;2023-04-07T11:32:54;11.70;99.90
40255;DHT22;25973;52.368;4.940;2023-04-07T11:35:20;11.80;99.90
40255;DHT22;25973;52.368;4.940;2023-04-07T11:37:45;11.80;99.90
40255;DHT22;25973;52.368;4.940;2023-04-07T11:40:11;11.80;99.90
40255;DHT22;25973;52.368;4.940;2023-04-07T11:42:41;11.80;99.90
40255;DHT22;25973;52.368;4.940;2023-04-07T11:45:16;11.70;99.90
40255;DHT22;25973;52.368;4.940;2023-04-07T11:47:42;11.70;99.90
40255;DHT22;25973;52.368;4.940;2023-04-07T11:50:08;11.70;99.90
40255;DHT22;25973;52.368;4.940;2023-04-07T11:53:06;11.80;99.90
40255;DHT22;25973;52.368;4.940;2023-04-07T11:55:25;11.80;99.90
40255;DHT22;25973;52.368;4.940;2023-04-07T11:57:50;11.80;99.90
40255;DHT22;25973;52.368;4.940;2023-04-07T12:00:16;11.70;99.90
40255;DHT22;25973;52.368;4.940;2023-04-07T12:02:42;11.70;99.90
40255;DHT22;25973;52.368;4.940;2023-04-07T12:05:08;11.80;99.90
40255;DHT22;25973;52.368;4.940;2023-04-07T12:07:37;11.80;99.90
40255;DHT22;25973;52.368;4.940;2023-04-07T12:10:19;11.90;99.90
40255;DHT22;25973;52.368;4.940;2023-04-07T12:12:45;11.90;99.90
40255;DHT22;25973;52.368;4.940;2023-04-07T12:15:10;12.00;99.90
40255;DHT22;25973;52.368;4.940;2023-04-07T12:17:36;12.00;99.90
40255;DHT22;25973;52.368;4.940;2023-04-07T12:20:01;12.10;99.90
40255;DHT22;25973;52.368;4.940;2023-04-07T12:22:27;12.20;99.90
40255;DHT22;25973;52.368;4.940;2023-04-07T12:24:53;12.20;99.90
40255;DHT22;25973;52.368;4.940;2023-04-07T12:27:18;12.20;99.90
40255;DHT22;25973;52.368;4.940;2023-04-07T12:29:43;12.20;99.90
40255;DHT22;25973;52.368;4.940;2023-04-07T12:32:09;12.30;99.90
40255;DHT22;25973;52.368;4.940;2023-04-07T12:34:34;12.30;99.90
40255;DHT22;25973;52.368;4.940;2023-04-07T12:37:01;12.20;99.90
40255;DHT22;25973;52.368;4.940;2023-04-07T12:39:27;12.20;99.90
40255;DHT22;25973;52.368;4.940;2023-04-07T12:41:52;12.20;99.90
40255;DHT22;25973;52.368;4.940;2023-04-07T12:44:18;12.20;99.90
40255;DHT22;25973;52.368;4.940;2023-04-07T12:46:43;12.10;99.90
40255;DHT22;25973;52.368;4.940;2023-04-07T12:49:09;12.00;99.90
40255;DHT22;25973;52.368;4.940;2023-04-07T12:51:35;11.90;99.90
40255;DHT22;25973;52.368;4.940;2023-04-07T12:54:01;11.90;99.90
40255;DHT22;25973;52.368;4.940;2023-04-07T12:56:28;11.90;99.90
40255;DHT22;25973;52.368;4.940;2023-04-07T12:58:54;11.80;99.90
40255;DHT22;25973;52.368;4.940;2023-04-07T13:01:19;11.70;99.90
40255;DHT22;25973;52.368;4.940;2023-04-07T13:03:45;11.60;99.90
40255;DHT22;25973;52.368;4.940;2023-04-07T13:06:11;11.60;99.90
40255;DHT22;25973;52.368;4.940;2023-04-07T13:08:36;11.60;99.90
40255;DHT22;25973;52.368;4.940;2023-04-07T13:11:02;11.60;99.90
40255;DHT22;25973;52.368;4.940;2023-04-07T13:13:28;11.60;99.90
40255;DHT22;25973;52.368;4.940;2023-04-07T13:15:53;11.60;99.90
40255;DHT22;25973;52.368;4.940;2023-04-07T13:18:19;11.60;99.90
40255;DHT22;25973;52.368;4.940;2023-04-07T13:20:44;11.60;99.90
40255;DHT22;25973;52.368;4.940;2023-04-07T13:23:16;11.60;99.90
40255;DHT22;25973;52.368;4.940;2023-04-07T13:26:03;11.50;99.90
40255;DHT22;25973;52.368;4.940;2023-04-07T13:28:27;11.60;99.90
40255;DHT22;25973;52.368;4.940;2023-04-07T13:30:53;11.60;99.90
40255;DHT22;25973;52.368;4.940;2023-04-07T13:33:18;11.50;99.90
40255;DHT22;25973;52.368;4.940;2023-04-07T13:35:44;11.50;99.90
40255;DHT22;25973;52.368;4.940;2023-04-07T13:38:09;11.50;99.90
40255;DHT22;25973;52.368;4.940;2023-04-07T13:40:35;11.50;99.90
40255;DHT22;25973;52.368;4.940;2023-04-07T13:43:00;11.50;99.90
40255;DHT22;25973;52.368;4.940;2023-04-07T13:45:26;11.50;99.90
40255;DHT22;25973;52.368;4.940;2023-04-07T13:47:51;11.40;99.90
40255;DHT22;25973;52.368;4.940;2023-04-07T13:50:17;11.50;99.90
40255;DHT22;25973;52.368;4.940;2023-04-07T13:52:42;11.50;99.90
40255;DHT22;25973;52.368;4.940;2023-04-07T13:55:08;11.60;99.90
40255;DHT22;25973;52.368;4.940;2023-04-07T13:57:33;11.60;99.90
40255;DHT22;25973;52.368;4.940;2023-04-07T13:59:59;11.60;99.90
40255;DHT22;25973;52.368;4.940;2023-04-07T14:02:25;11.60;99.90
40255;DHT22;25973;52.368;4.940;2023-04-07T14:04:52;11.50;99.90
40255;DHT22;25973;52.368;4.940;2023-04-07T14:07:17;11.50;99.90
40255;DHT22;25973;52.368;4.940;2023-04-07T14:09:43;11.50;99.90
40255;DHT22;25973;52.368;4.940;2023-04-07T14:12:08;11.50;99.90
40255;DHT22;25973;52.368;4.940;2023-04-07T14:14:34;11.40;99.90
40255;DHT22;25973;52.368;4.940;2023-04-07T14:17:02;11.40;99.90
40255;DHT22;25973;52.368;4.940;2023-04-07T14:19:27;11.30;99.90
40255;DHT22;25973;52.368;4.940;2023-04-07T14:21:53;11.40;99.90
40255;DHT22;25973;52.368;4.940;2023-04-07T14:24:19;11.30;99.90
40255;DHT22;25973;52.368;4.940;2023-04-07T14:26:44;11.30;99.90
40255;DHT22;25973;52.368;4.940;2023-04-07T14:29:13;11.40;99.90
40255;DHT22;25973;52.368;4.940;2023-04-07T14:31:39;11.40;99.90
40255;DHT22;25973;52.368;4.940;2023-04-07T14:34:04;11.40;99.90
40255;DHT22;25973;52.368;4.940;2023-04-07T14:36:31;11.40;99.90
40255;DHT22;25973;52.368;4.940;2023-04-07T14:38:57;11.40;99.90
40255;DHT22;25973;52.368;4.940;2023-04-07T14:41:23;11.40;99.90
40255;DHT22;25973;52.368;4.940;2023-04-07T14:43:48;11.40;99.90
40255;DHT22;25973;52.368;4.940;2023-04-07T14:46:20;11.40;99.90
40255;DHT22;25973;52.368;4.940;2023-04-07T14:48:45;11.40;99.90
40255;DHT22;25973;52.368;4.940;2023-04-07T14:51:11;11.40;99.90
40255;DHT22;25973;52.368;4.940;2023-04-07T14:53:37;11.40;99.90
40255;DHT22;25973;52.368;4.940;2023-04-07T14:56:03;11.40;99.90
40255;DHT22;25973;52.368;4.940;2023-04-07T14:58:29;11.40;99.90
40255;DHT22;25973;52.368;4.940;2023-04-07T15:00:55;11.40;99.90
40255;DHT22;25973;52.368;4.940;2023-04-07T15:03:21;11.40;99.90
40255;DHT22;25973;52.368;4.940;2023-04-07T15:05:46;11.40;99.90
40255;DHT22;25973;52.368;4.940;2023-04-07T15:08:11;11.50;99.90
40255;DHT22;25973;52.368;4.940;2023-04-07T15:10:37;11.40;99.90
40255;DHT22;25973;52.368;4.940;2023-04-07T15:13:03;11.50;99.90
40255;DHT22;25973;52.368;4.940;2023-04-07T15:15:28;11.50;99.90
40255;DHT22;25973;52.368;4.940;2023-04-07T15:17:57;11.50;99.90
40255;DHT22;25973;52.368;4.940;2023-04-07T15:20:22;11.50;99.90
40255;DHT22;25973;52.368;4.940;2023-04-07T15:22:48;11.60;99.90
40255;DHT22;25973;52.368;4.940;2023-04-07T15:25:13;11.60;99.90
40255;DHT22;25973;52.368;4.940;2023-04-07T15:27:38;11.60;99.90
40255;DHT22;25973;52.368;4.940;2023-04-07T15:30:04;11.60;99.90
40255;DHT22;25973;52.368;4.940;2023-04-07T15:32:30;11.60;99.90
40255;DHT22;25973;52.368;4.940;2023-04-07T15:34:56;11.60;99.90
40255;DHT22;25973;52.368;4.940;2023-04-07T15:37:21;11.60;99.90
40255;DHT22;25973;52.368;4.940;2023-04-07T15:39:47;11.60;99.90
40255;DHT22;25973;52.368;4.940;2023-04-07T15:42:12;11.60;99.90
40255;DHT22;25973;52.368;4.940;2023-04-07T15:44:38;11.60;99.90